Time;durP1;ratioP1;P1;durP2;ratioP2;P2;SDS_P1;SDS_P2;PMS_P1;PMS_P2;Temp;Humidity;BMP_temperature;BMP_pressure;BME280_temperature;BME280_humidity;BME280_pressure;Samples;Min_cycle;Max_cycle;Signal;HPM_P1;HPM_P2
2023/01/19 00:01:22;;;;;;;12.00;9.50;;;-0.90;99.90;;;;;;4935946;29;20212;-71
2023/01/19 00:03:50;;;;;;;12.43;9.40;;;-1.00;99.90;;;;;;4933346;29;20204;-71
2023/01/19 00:06:18;;;;;;;10.95;9.85;;;-1.10;99.90;;;;;;4933144;29;20204;-71
2023/01/19 00:08:47;;;;;;;12.90;10.30;;;-1.10;99.90;;;;;;4929998;29;20311;-71
2023/01/19 00:11:16;;;;;;;11.50;9.30;;;-1.10;99.90;;;;;;4930850;29;20201;-71
2023/01/19 00:13:48;;;;;;;9.88;8.85;;;-1.10;99.90;;;;;;4919904;29;20221;-71
2023/01/19 00:16:17;;;;;;;10.13;9.00;;;-1.10;99.90;;;;;;4926606;29;20200;-71
2023/01/19 00:18:44;;;;;;;10.85;9.65;;;-1.10;99.90;;;;;;4933834;29;20235;-71
2023/01/19 00:21:14;;;;;;;12.07;10.05;;;-1.20;99.90;;;;;;4933162;29;20201;-71
2023/01/19 00:23:42;;;;;;;10.57;9.57;;;-1.20;99.90;;;;;;4930936;29;20296;-71
2023/01/19 00:26:10;;;;;;;12.13;10.82;;;-1.20;99.90;;;;;;4928388;29;20211;-71
2023/01/19 00:28:37;;;;;;;10.27;9.18;;;-1.30;99.90;;;;;;4931486;29;20270;-71
2023/01/19 00:31:04;;;;;;;10.90;9.52;;;-1.30;99.90;;;;;;4921633;29;20674;-71
2023/01/19 00:33:31;;;;;;;13.98;9.65;;;-1.30;99.90;;;;;;4931295;29;20252;-71
2023/01/19 00:35:58;;;;;;;13.50;9.68;;;-1.30;99.90;;;;;;4927743;29;20554;-71
2023/01/19 00:38:27;;;;;;;10.82;9.75;;;-1.30;99.90;;;;;;4931512;29;20558;-71
2023/01/19 00:40:54;;;;;;;13.05;10.68;;;-1.30;99.90;;;;;;4928761;29;20212;-71
2023/01/19 00:43:21;;;;;;;13.02;10.65;;;-1.30;99.90;;;;;;4930781;29;20620;-71
2023/01/19 00:45:48;;;;;;;12.10;9.70;;;-1.30;99.90;;;;;;4927512;29;20208;-71
2023/01/19 00:48:15;;;;;;;11.18;9.95;;;-1.30;99.90;;;;;;4932143;29;20235;-71
2023/01/19 00:50:42;;;;;;;11.50;10.18;;;-1.30;99.90;;;;;;4931419;29;20292;-71
2023/01/19 00:53:09;;;;;;;13.63;10.00;;;-1.30;99.90;;;;;;4932027;29;20735;-71
2023/01/19 00:55:37;;;;;;;11.43;10.32;;;-1.30;99.90;;;;;;4929388;29;20260;-71
2023/01/19 00:58:05;;;;;;;10.93;9.85;;;-1.40;99.90;;;;;;4932321;29;20257;-71
2023/01/19 01:00:32;;;;;;;11.75;10.30;;;-1.40;99.90;;;;;;4930880;29;20296;-71
2023/01/19 01:02:59;;;;;;;11.60;10.25;;;-1.50;99.90;;;;;;4930269;29;20201;-71
2023/01/19 01:05:26;;;;;;;11.10;10.00;;;-1.50;99.90;;;;;;4931342;29;20209;-71
2023/01/19 01:07:53;;;;;;;10.63;9.50;;;-1.50;99.90;;;;;;4932598;29;20227;-71
2023/01/19 01:10:23;;;;;;;11.18;9.95;;;-1.50;99.90;;;;;;4933006;29;20524;-71
2023/01/19 01:12:52;;;;;;;13.20;10.55;;;-1.60;99.90;;;;;;4937382;29;20209;-71
2023/01/19 01:15:20;;;;;;;11.85;9.43;;;-1.60;99.90;;;;;;4933118;29;20245;-71
2023/01/19 01:17:47;;;;;;;10.48;9.38;;;-1.60;99.90;;;;;;4937072;29;20575;-71
2023/01/19 01:20:16;;;;;;;11.57;10.48;;;-1.60;99.90;;;;;;4928934;29;20746;-71
2023/01/19 01:22:46;;;;;;;11.60;10.40;;;-1.60;99.90;;;;;;4929600;29;20206;-71
2023/01/19 01:25:14;;;;;;;11.88;10.57;;;-1.60;99.90;;;;;;4930196;29;20701;-71
2023/01/19 01:27:41;;;;;;;11.45;10.00;;;-1.70;99.90;;;;;;4935331;29;20199;-71
2023/01/19 01:30:12;;;;;;;11.80;10.60;;;-1.70;99.90;;;;;;4931105;29;20224;-71
2023/01/19 01:32:40;;;;;;;12.15;10.70;;;-1.70;99.90;;;;;;4932115;29;20205;-71
2023/01/19 01:35:08;;;;;;;12.10;10.85;;;-1.70;99.90;;;;;;4932791;29;20229;-71
2023/01/19 01:37:36;;;;;;;11.38;10.18;;;-1.80;99.90;;;;;;4931139;29;20205;-71
2023/01/19 01:40:03;;;;;;;11.85;10.73;;;-1.80;99.90;;;;;;4933880;29;20200;-71
2023/01/19 01:42:32;;;;;;;13.85;12.05;;;-1.80;99.90;;;;;;4936068;29;20217;-71
2023/01/19 01:45:02;;;;;;;12.65;11.35;;;-1.80;99.90;;;;;;4931826;29;20538;-71
2023/01/19 01:47:36;;;;;;;12.43;11.07;;;-1.90;99.90;;;;;;4933077;29;20256;-71
2023/01/19 01:50:09;;;;;;;14.05;11.73;;;-1.90;99.90;;;;;;4934768;29;20197;-71
2023/01/19 01:52:40;;;;;;;13.40;11.95;;;-2.00;99.90;;;;;;4935943;29;20236;-71
2023/01/19 01:55:09;;;;;;;13.70;12.30;;;-2.00;99.90;;;;;;4935701;29;20288;-71
2023/01/19 01:57:38;;;;;;;13.43;12.02;;;-2.00;99.90;;;;;;4934872;29;20205;-71
2023/01/19 02:00:07;;;;;;;13.48;12.05;;;-1.90;99.90;;;;;;4934373;29;20212;-71
2023/01/19 02:02:52;;;;;;;14.45;12.82;;;-2.00;99.90;;;;;;4934349;29;20216;-71
2023/01/19 02:05:23;;;;;;;13.32;11.68;;;-1.90;99.90;;;;;;4932192;29;20549;-71
2023/01/19 02:13:28;;;;;;;12.10;10.88;;;-1.90;99.90;;;;;;4933394;29;20201;-71
2023/01/19 02:16:00;;;;;;;13.52;12.13;;;-1.80;99.90;;;;;;4927581;29;20211;-71
2023/01/19 02:18:30;;;;;;;13.63;11.85;;;-1.80;99.90;;;;;;4933724;29;20221;-72
2023/01/19 02:21:06;;;;;;;13.15;11.70;;;-1.80;99.90;;;;;;4935530;29;20213;-71
2023/01/19 02:23:46;;;;;;;12.23;10.93;;;-1.80;99.90;;;;;;4934203;29;20240;-71
2023/01/19 02:26:15;;;;;;;14.00;11.95;;;-1.80;99.90;;;;;;4933852;29;20227;-71
2023/01/19 02:28:47;;;;;;;13.57;9.80;;;-1.80;99.90;;;;;;4929512;29;20323;-71
2023/01/19 02:31:15;;;;;;;11.02;9.93;;;-1.70;99.90;;;;;;4933608;29;20198;-71
2023/01/19 02:33:42;;;;;;;11.02;9.93;;;-1.70;99.90;;;;;;4923276;29;20212;-71
2023/01/19 02:36:11;;;;;;;12.32;9.55;;;-1.60;99.90;;;;;;4935160;29;20292;-71
2023/01/19 02:38:40;;;;;;;15.68;9.80;;;-1.50;99.90;;;;;;4927548;29;20222;-71
2023/01/19 02:41:12;;;;;;;11.02;9.95;;;-1.50;99.90;;;;;;4934325;29;20752;-72
2023/01/19 02:43:41;;;;;;;11.27;9.77;;;-1.40;99.90;;;;;;4926412;29;20663;-71
2023/01/19 02:46:08;;;;;;;10.02;9.02;;;-1.40;99.90;;;;;;4929153;29;20211;-71
2023/01/19 02:48:35;;;;;;;11.02;9.60;;;-1.40;99.90;;;;;;4937572;29;20245;-70
2023/01/19 02:51:09;;;;;;;12.32;10.02;;;-1.30;99.90;;;;;;4938949;29;20212;-70
2023/01/19 02:54:02;;;;;;;12.77;9.82;;;-1.30;99.90;;;;;;4934466;29;20565;-71
2023/01/19 02:56:39;;;;;;;11.02;10.00;;;-1.40;99.90;;;;;;4928429;29;20214;-71
2023/01/19 02:59:14;;;;;;;11.63;10.43;;;-1.50;99.90;;;;;;4926953;29;20685;-71
2023/01/19 03:02:00;;;;;;;11.43;10.43;;;-1.50;99.90;;;;;;4931515;29;20200;-71
2023/01/19 03:04:33;;;;;;;11.38;10.25;;;-1.50;99.90;;;;;;4929043;29;20205;-70
2023/01/19 03:07:08;;;;;;;15.15;11.63;;;-1.60;99.90;;;;;;4915493;29;20244;-70
2023/01/19 03:09:42;;;;;;;11.60;9.80;;;-1.60;99.90;;;;;;4926093;29;20317;-70
2023/01/19 03:12:21;;;;;;;11.15;10.05;;;-1.60;99.90;;;;;;4934737;29;20288;-70
2023/01/19 03:14:48;;;;;;;13.13;11.75;;;-1.70;99.90;;;;;;4932186;29;20328;-71
2023/01/19 03:17:18;;;;;;;13.73;10.77;;;-1.70;99.90;;;;;;4932094;29;20724;-71
2023/01/19 03:19:49;;;;;;;13.30;10.60;;;-1.80;99.90;;;;;;4888088;29;1065981;-71
2023/01/19 03:22:21;;;;;;;14.52;11.82;;;-1.90;99.90;;;;;;4922804;29;20343;-70
2023/01/19 03:24:51;;;;;;;12.27;10.98;;;-1.90;99.90;;;;;;4933414;29;20292;-70
2023/01/19 03:27:24;;;;;;;12.73;11.43;;;-2.00;99.90;;;;;;4933715;29;20201;-70
2023/01/19 03:29:54;;;;;;;12.63;11.23;;;-2.10;99.90;;;;;;4932497;29;20692;-70
2023/01/19 03:32:28;;;;;;;13.18;11.85;;;-2.10;99.90;;;;;;4919213;29;20204;-70
2023/01/19 03:34:57;;;;;;;14.77;12.90;;;-2.20;99.90;;;;;;4922382;29;20594;-71
2023/01/19 03:37:27;;;;;;;15.05;13.15;;;-2.20;99.90;;;;;;4931813;29;20536;-71
2023/01/19 03:39:54;;;;;;;13.10;11.35;;;-2.20;99.90;;;;;;4933203;29;20642;-70
2023/01/19 03:42:23;;;;;;;13.35;12.10;;;-2.20;99.90;;;;;;4933941;29;20262;-71
2023/01/19 03:44:54;;;;;;;13.50;12.10;;;-2.20;99.90;;;;;;4932431;29;20653;-72
2023/01/19 03:47:22;;;;;;;11.65;10.45;;;-2.20;99.90;;;;;;4933081;29;20201;-71
2023/01/19 03:49:51;;;;;;;12.85;11.60;;;-2.10;99.90;;;;;;4932895;29;20205;-72
2023/01/19 03:52:26;;;;;;;13.95;11.88;;;-2.10;99.90;;;;;;4932167;29;20613;-71
2023/01/19 03:54:52;;;;;;;14.30;12.07;;;-2.20;99.90;;;;;;4928431;29;20220;-71
2023/01/19 03:57:20;;;;;;;13.75;12.18;;;-2.20;99.90;;;;;;4928466;29;20211;-72
2023/01/19 03:59:49;;;;;;;13.38;10.65;;;-2.00;99.90;;;;;;4925544;29;20269;-72
2023/01/19 04:02:16;;;;;;;13.88;12.00;;;-2.20;99.90;;;;;;4932880;29;20654;-71
2023/01/19 04:04:43;;;;;;;15.63;12.35;;;-2.20;99.90;;;;;;4932719;29;20189;-71
2023/01/19 04:07:11;;;;;;;13.93;12.30;;;-2.20;99.90;;;;;;4933940;29;20268;-71
2023/01/19 04:09:38;;;;;;;13.20;11.95;;;-2.20;99.90;;;;;;4925122;29;20229;-71
2023/01/19 04:12:05;;;;;;;13.70;12.30;;;-2.20;99.90;;;;;;4934790;29;20210;-71
2023/01/19 04:14:32;;;;;;;13.90;12.07;;;-2.20;99.90;;;;;;4929148;29;20224;-71
2023/01/19 04:17:00;;;;;;;13.02;11.52;;;-2.20;99.90;;;;;;4923663;29;20618;-71
2023/01/19 04:19:28;;;;;;;12.52;11.25;;;-2.10;99.90;;;;;;4932233;29;20233;-71
2023/01/19 04:21:55;;;;;;;13.07;11.73;;;-2.30;99.90;;;;;;4931122;29;20680;-71
2023/01/19 04:24:22;;;;;;;12.88;11.57;;;-2.30;99.90;;;;;;4918605;29;20206;-69
2023/01/19 04:26:51;;;;;;;12.60;11.30;;;-2.30;99.90;;;;;;4920773;29;20325;-70
2023/01/19 04:29:18;;;;;;;17.27;11.45;;;-2.40;99.90;;;;;;4922077;29;20577;-70
2023/01/19 04:31:45;;;;;;;12.90;11.60;;;-2.40;99.90;;;;;;4925922;29;20235;-70
2023/01/19 04:34:13;;;;;;;13.88;12.45;;;-2.40;99.90;;;;;;4934371;29;20247;-70
2023/01/19 04:36:40;;;;;;;14.63;12.35;;;-2.40;99.90;;;;;;4925663;29;20287;-70
2023/01/19 04:39:09;;;;;;;13.07;10.95;;;-2.40;99.90;;;;;;4928476;29;20220;-70
2023/01/19 04:41:36;;;;;;;14.27;12.63;;;-2.40;99.90;;;;;;4933335;29;20205;-70
2023/01/19 04:44:03;;;;;;;13.20;11.80;;;-2.40;99.90;;;;;;4930179;29;20297;-71
2023/01/19 04:46:30;;;;;;;12.88;11.55;;;-2.50;99.90;;;;;;4931705;29;20593;-70
2023/01/19 04:48:57;;;;;;;15.07;12.23;;;-2.50;99.90;;;;;;4924665;29;20218;-71
2023/01/19 04:51:27;;;;;;;14.18;11.95;;;-2.50;99.90;;;;;;4921378;29;20263;-71
2023/01/19 04:53:54;;;;;;;15.70;12.50;;;-2.50;99.90;;;;;;4932140;29;20201;-71
2023/01/19 04:56:21;;;;;;;14.68;11.18;;;-2.40;99.90;;;;;;4927126;29;20237;-71
2023/01/19 04:58:48;;;;;;;14.23;12.75;;;-2.50;99.90;;;;;;4932863;29;20312;-71
2023/01/19 05:01:15;;;;;;;12.65;11.40;;;-2.50;99.90;;;;;;4931339;29;20664;-72
2023/01/19 05:03:42;;;;;;;11.95;10.73;;;-2.50;99.90;;;;;;4929618;29;20209;-71
2023/01/19 05:06:09;;;;;;;14.20;12.52;;;-2.50;99.90;;;;;;4927963;29;20642;-70
2023/01/19 05:08:37;;;;;;;12.85;11.45;;;-2.50;99.90;;;;;;4930180;29;20235;-71
2023/01/19 05:11:05;;;;;;;12.75;11.40;;;-2.40;99.90;;;;;;4931876;29;20250;-71
2023/01/19 05:13:32;;;;;;;13.18;11.77;;;-2.40;99.90;;;;;;4924496;29;20208;-70
2023/01/19 05:15:59;;;;;;;15.23;11.77;;;-2.40;99.90;;;;;;4933134;28;20240;-70
2023/01/19 05:18:27;;;;;;;13.45;11.13;;;-2.30;99.90;;;;;;4930850;29;20312;-71
2023/01/19 05:20:54;;;;;;;12.55;11.23;;;-2.20;99.90;;;;;;4929387;29;20683;-71
2023/01/19 05:23:21;;;;;;;13.18;11.88;;;-2.40;99.90;;;;;;4933684;29;20573;-70
2023/01/19 05:25:49;;;;;;;11.15;9.80;;;-2.40;99.90;;;;;;4927755;29;20205;-71
2023/01/19 05:28:16;;;;;;;16.55;12.57;;;-2.10;99.90;;;;;;4925438;29;20266;-70
2023/01/19 05:30:43;;;;;;;14.23;12.73;;;-1.90;99.90;;;;;;4918950;29;20197;-68
2023/01/19 05:33:10;;;;;;;11.32;10.23;;;-1.80;99.90;;;;;;4929655;29;20205;-69
2023/01/19 05:35:37;;;;;;;11.10;9.95;;;-1.70;99.90;;;;;;4930754;29;20268;-69
2023/01/19 05:38:04;;;;;;;10.30;9.30;;;-1.70;99.90;;;;;;4920445;29;20221;-70
2023/01/19 05:40:32;;;;;;;11.50;9.77;;;-1.70;99.90;;;;;;4920919;29;20657;-70
2023/01/19 05:43:03;;;;;;;10.63;9.18;;;-1.70;99.90;;;;;;4918089;29;20297;-70
2023/01/19 05:45:30;;;;;;;11.02;9.88;;;-1.70;99.90;;;;;;4914996;29;20212;-71
2023/01/19 05:47:58;;;;;;;11.07;9.38;;;-1.70;99.90;;;;;;4925870;29;20296;-70
2023/01/19 05:50:25;;;;;;;11.35;10.15;;;-1.80;99.90;;;;;;4928483;29;20235;-70
2023/01/19 05:52:52;;;;;;;11.00;9.63;;;-1.80;99.90;;;;;;4928820;29;20201;-70
2023/01/19 05:55:20;;;;;;;10.07;8.80;;;-1.80;99.90;;;;;;4931770;29;20233;-73
2023/01/19 05:57:47;;;;;;;10.77;9.77;;;-1.80;99.90;;;;;;4928762;29;20217;-71
2023/01/19 06:00:16;;;;;;;10.10;9.13;;;-1.80;99.90;;;;;;4918213;29;20210;-70
2023/01/19 06:02:43;;;;;;;10.80;9.20;;;-1.90;99.90;;;;;;4936369;29;20251;-71
2023/01/19 06:05:10;;;;;;;10.60;9.52;;;-1.90;99.90;;;;;;4923144;29;20320;-70
2023/01/19 06:07:38;;;;;;;10.85;9.75;;;-1.90;99.90;;;;;;4934454;29;20217;-71
2023/01/19 06:10:06;;;;;;;13.10;10.52;;;-1.90;99.90;;;;;;4934651;29;20198;-70
2023/01/19 06:12:33;;;;;;;11.23;10.10;;;-2.00;99.90;;;;;;4935535;29;20280;-71
2023/01/19 06:15:00;;;;;;;10.93;9.73;;;-2.00;99.90;;;;;;4935651;29;20245;-71
2023/01/19 06:17:28;;;;;;;11.20;10.10;;;-2.00;99.90;;;;;;4934910;29;20283;-70
2023/01/19 06:19:55;;;;;;;13.65;10.18;;;-2.00;99.90;;;;;;4926147;29;20213;-70
2023/01/19 06:22:23;;;;;;;10.57;9.48;;;-2.00;99.90;;;;;;4936232;29;20227;-70
2023/01/19 06:24:50;;;;;;;10.93;9.73;;;-1.90;99.90;;;;;;4925810;29;20205;-70
2023/01/19 06:27:17;;;;;;;12.68;10.63;;;-1.80;99.90;;;;;;4929249;29;20249;-72
2023/01/19 06:29:44;;;;;;;10.20;8.80;;;-1.80;99.90;;;;;;4918108;29;20202;-71
2023/01/19 06:32:11;;;;;;;12.90;10.18;;;-1.70;99.90;;;;;;4934730;29;20650;-70
2023/01/19 06:34:42;;;;;;;12.98;9.45;;;-1.60;99.90;;;;;;4929797;29;20207;-71
2023/01/19 06:37:10;;;;;;;10.07;8.57;;;-1.60;99.90;;;;;;4933317;29;20232;-70
2023/01/19 06:39:39;;;;;;;12.93;9.85;;;-1.50;99.90;;;;;;4934788;29;20229;-71
2023/01/19 06:42:06;;;;;;;11.23;9.38;;;-1.50;99.90;;;;;;4935518;29;20256;-70
2023/01/19 06:44:34;;;;;;;11.25;10.00;;;-1.50;99.90;;;;;;4934631;29;20213;-71
2023/01/19 06:47:01;;;;;;;10.93;9.82;;;-1.50;99.90;;;;;;4932789;29;20213;-71
2023/01/19 06:49:28;;;;;;;11.23;10.02;;;-1.50;99.90;;;;;;4932387;29;20565;-70
2023/01/19 06:51:56;;;;;;;10.25;8.95;;;-1.50;99.90;;;;;;4933644;29;20201;-70
2023/01/19 06:54:23;;;;;;;11.75;10.07;;;-1.50;99.90;;;;;;4935318;29;20662;-71
2023/01/19 06:56:50;;;;;;;11.82;10.27;;;-1.50;99.90;;;;;;4932417;29;20776;-71
2023/01/19 06:59:18;;;;;;;10.50;9.50;;;-1.40;99.90;;;;;;4937331;29;20216;-70
2023/01/19 07:01:45;;;;;;;9.57;8.57;;;-1.30;99.90;;;;;;4941677;29;20289;-70
2023/01/19 07:04:14;;;;;;;10.85;9.35;;;-1.20;99.90;;;;;;4935433;29;20715;-71
2023/01/19 07:06:41;;;;;;;9.40;8.15;;;-1.20;99.90;;;;;;4933632;29;20267;-71
2023/01/19 07:09:12;;;;;;;10.45;8.80;;;-1.20;99.90;;;;;;4933573;29;20728;-71
2023/01/19 07:11:39;;;;;;;10.00;9.00;;;-1.20;99.90;;;;;;4935504;29;20215;-71
2023/01/19 07:14:06;;;;;;;10.18;8.65;;;-1.10;99.90;;;;;;4935440;29;20662;-71
2023/01/19 07:16:34;;;;;;;10.10;8.88;;;-1.10;99.90;;;;;;4933776;29;20233;-71
2023/01/19 07:19:00;;;;;;;9.43;8.52;;;-1.10;99.90;;;;;;4933115;29;20230;-71
2023/01/19 07:21:27;;;;;;;13.45;9.63;;;-1.10;99.90;;;;;;4930315;29;20205;-71
2023/01/19 07:23:54;;;;;;;11.35;9.40;;;-1.10;99.90;;;;;;4935322;29;20228;-70
2023/01/19 07:26:24;;;;;;;11.90;10.70;;;-1.20;99.90;;;;;;4933711;29;20614;-72
2023/01/19 07:28:51;;;;;;;10.50;9.40;;;-1.30;99.90;;;;;;4934188;29;20221;-71
2023/01/19 07:31:19;;;;;;;13.25;10.48;;;-1.40;99.90;;;;;;4931410;29;20197;-71
2023/01/19 07:33:46;;;;;;;11.65;9.60;;;-1.50;99.90;;;;;;4933598;29;20320;-71
2023/01/19 07:36:13;;;;;;;11.10;10.00;;;-1.50;99.90;;;;;;4923215;29;20684;-72
2023/01/19 07:38:40;;;;;;;11.15;9.98;;;-1.50;99.90;;;;;;4926933;29;20228;-70
2023/01/19 07:41:09;;;;;;;10.95;9.77;;;-1.60;99.90;;;;;;4930430;29;20676;-71
2023/01/19 07:43:37;;;;;;;12.73;10.50;;;-1.60;99.90;;;;;;4925412;29;20201;-71
2023/01/19 07:46:06;;;;;;;12.30;10.30;;;-1.70;99.90;;;;;;4934847;29;20268;-71
2023/01/19 07:48:33;;;;;;;12.95;11.43;;;-1.70;99.90;;;;;;4929415;29;20228;-72
2023/01/19 07:51:00;;;;;;;10.88;9.82;;;-1.70;99.90;;;;;;4932433;29;20201;-71
2023/01/19 07:53:28;;;;;;;11.93;10.48;;;-1.60;99.90;;;;;;4933468;29;20217;-71
2023/01/19 07:55:56;;;;;;;12.52;10.00;;;-1.60;99.90;;;;;;4928662;29;20282;-71
2023/01/19 07:58:23;;;;;;;14.77;11.10;;;-1.50;99.90;;;;;;4922783;29;20230;-71
2023/01/19 08:00:51;;;;;;;11.93;9.98;;;-1.40;99.90;;;;;;4923562;29;20221;-71
2023/01/19 08:03:19;;;;;;;10.98;9.88;;;-1.30;99.90;;;;;;4927653;29;20209;-72
2023/01/19 08:05:50;;;;;;;9.95;8.65;;;-1.20;99.90;;;;;;4926949;29;20608;-71
2023/01/19 08:08:18;;;;;;;12.27;9.60;;;-1.20;99.90;;;;;;4934275;29;20312;-71
2023/01/19 08:10:45;;;;;;;11.70;9.75;;;-1.10;99.90;;;;;;4933390;29;20205;-71
2023/01/19 08:13:12;;;;;;;12.32;9.93;;;-1.10;99.90;;;;;;4934184;29;20205;-71
2023/01/19 08:15:39;;;;;;;11.52;9.57;;;-1.10;99.90;;;;;;4932484;29;20201;-71
2023/01/19 08:18:08;;;;;;;10.93;9.80;;;-1.10;99.90;;;;;;4933339;29;20221;-71
2023/01/19 08:20:36;;;;;;;9.38;8.38;;;-1.00;99.90;;;;;;4932173;29;20212;-71
2023/01/19 08:23:04;;;;;;;11.27;8.50;;;-0.90;99.90;;;;;;4934186;29;20221;-71
2023/01/19 08:25:36;;;;;;;11.00;8.88;;;-0.80;99.90;;;;;;4933364;29;20300;-72
2023/01/19 08:28:05;;;;;;;10.13;9.13;;;-0.60;99.90;;;;;;4914832;29;20214;-71
2023/01/19 08:30:32;;;;;;;8.73;7.80;;;-0.40;99.90;;;;;;4919081;29;20209;-71
2023/01/19 08:33:03;;;;;;;8.95;8.00;;;-0.20;99.90;;;;;;4923925;29;20220;-70
2023/01/19 08:35:33;;;;;;;9.05;8.15;;;-0.20;99.90;;;;;;4933954;29;20204;-70
2023/01/19 08:38:00;;;;;;;8.60;7.70;;;-0.10;99.90;;;;;;4930634;29;20225;-72
2023/01/19 08:40:28;;;;;;;10.93;8.68;;;-0.10;99.90;;;;;;4933416;29;20204;-70
2023/01/19 08:42:59;;;;;;;9.95;8.27;;;0.00;99.90;;;;;;4930966;29;20273;-70
2023/01/19 08:45:27;;;;;;;9.93;8.07;;;0.10;99.90;;;;;;4932394;29;20201;-70
2023/01/19 08:47:55;;;;;;;8.55;7.75;;;0.40;99.90;;;;;;4932300;29;20221;-71
2023/01/19 08:50:23;;;;;;;9.32;8.40;;;0.50;99.90;;;;;;4933609;29;20805;-70
2023/01/19 08:52:51;;;;;;;9.40;8.40;;;0.70;99.90;;;;;;4932622;29;20289;-71
2023/01/19 08:55:18;;;;;;;9.40;8.40;;;0.80;99.90;;;;;;4933468;29;20203;-70
2023/01/19 08:57:45;;;;;;;10.75;7.90;;;0.90;99.90;;;;;;4922555;29;20265;-71
2023/01/19 09:00:13;;;;;;;8.60;7.80;;;0.80;99.90;;;;;;4930434;29;20654;-70
2023/01/19 09:02:40;;;;;;;8.10;7.30;;;0.80;99.90;;;;;;4914661;29;20321;-71
2023/01/19 09:05:08;;;;;;;8.85;8.02;;;0.70;99.90;;;;;;4926681;29;20229;-71
2023/01/19 09:07:35;;;;;;;9.63;8.52;;;0.70;99.90;;;;;;4932110;29;20260;-71
2023/01/19 09:10:04;;;;;;;9.55;7.85;;;0.70;99.90;;;;;;4933176;29;20674;-70
2023/01/19 09:12:32;;;;;;;8.65;7.78;;;0.80;99.90;;;;;;4932231;29;20638;-70
2023/01/19 09:14:59;;;;;;;8.43;7.60;;;1.00;99.90;;;;;;4925683;29;20205;-71
2023/01/19 09:17:26;;;;;;;8.00;7.22;;;1.00;99.90;;;;;;4926961;29;20357;-70
2023/01/19 09:19:53;;;;;;;7.68;6.57;;;1.10;99.90;;;;;;4933392;29;20255;-71
2023/01/19 09:22:20;;;;;;;7.65;6.85;;;1.20;99.90;;;;;;4932510;29;20210;-71
2023/01/19 09:24:47;;;;;;;8.77;7.60;;;1.20;99.90;;;;;;4932259;29;20212;-71
2023/01/19 09:27:15;;;;;;;7.22;6.50;;;1.20;99.90;;;;;;4925496;29;20236;-71
2023/01/19 09:29:49;;;;;;;9.80;6.65;;;1.10;99.90;;;;;;4927233;29;20292;-70
2023/01/19 09:32:15;;;;;;;7.00;6.30;;;1.00;99.90;;;;;;4936130;29;20202;-70
2023/01/19 09:34:43;;;;;;;10.18;7.82;;;0.90;99.90;;;;;;4935694;29;20268;-71
2023/01/19 09:37:10;;;;;;;7.60;6.78;;;0.90;99.90;;;;;;4935533;29;20244;-71
2023/01/19 09:39:37;;;;;;;7.90;7.10;;;0.90;99.90;;;;;;4937093;29;20201;-71
2023/01/19 09:42:22;;;;;;;8.15;6.95;;;0.90;99.90;;;;;;4933403;29;20205;-71
2023/01/19 09:44:52;;;;;;;7.05;6.35;;;1.00;99.90;;;;;;4921873;29;20199;-71
2023/01/19 09:47:24;;;;;;;8.20;6.32;;;1.00;99.90;;;;;;4935223;29;20226;-70
2023/01/19 09:49:57;;;;;;;6.85;6.25;;;1.10;99.90;;;;;;4936571;29;20678;-70
2023/01/19 09:52:24;;;;;;;7.10;6.45;;;1.20;99.90;;;;;;4934246;29;20234;-71
2023/01/19 09:54:54;;;;;;;6.70;6.03;;;1.40;99.90;;;;;;4936852;29;20201;-71
2023/01/19 09:57:22;;;;;;;6.80;6.20;;;1.50;99.90;;;;;;4932990;29;20594;-71
2023/01/19 09:59:56;;;;;;;6.55;5.50;;;1.60;99.90;;;;;;4935066;29;20190;-70
2023/01/19 10:02:33;;;;;;;6.25;4.93;;;1.70;99.90;;;;;;4935435;29;20210;-71
2023/01/19 10:05:03;;;;;;;5.75;5.25;;;1.80;99.90;;;;;;4936583;29;20630;-70
2023/01/19 10:07:39;;;;;;;5.95;5.10;;;1.90;99.90;;;;;;4931432;29;20694;-71
2023/01/19 10:10:17;;;;;;;5.70;5.20;;;1.90;99.90;;;;;;4934290;29;20288;-70
2023/01/19 10:12:53;;;;;;;6.55;4.97;;;1.90;99.90;;;;;;4934103;29;20208;-70
2023/01/19 10:15:30;;;;;;;5.05;4.60;;;2.00;99.90;;;;;;4923403;29;20198;-71
2023/01/19 10:18:10;;;;;;;5.72;4.93;;;2.20;99.90;;;;;;4930233;29;20698;-70
2023/01/19 10:20:41;;;;;;;6.90;5.45;;;2.20;99.90;;;;;;4922311;29;20207;-70
2023/01/19 10:23:32;;;;;;;5.20;4.70;;;2.10;99.90;;;;;;4932036;29;20202;-71
2023/01/19 10:26:02;;;;;;;5.25;4.70;;;2.00;99.90;;;;;;4934862;29;20216;-70
2023/01/19 10:28:30;;;;;;;6.45;5.35;;;1.90;99.90;;;;;;4933603;29;20230;-70
2023/01/19 10:30:58;;;;;;;7.10;6.35;;;1.80;99.90;;;;;;4933957;29;20197;-70
2023/01/19 10:33:26;;;;;;;6.50;5.90;;;1.70;99.90;;;;;;4933610;29;20206;-71
2023/01/19 10:35:53;;;;;;;7.03;6.32;;;1.80;99.90;;;;;;4936174;29;20302;-71
2023/01/19 10:38:21;;;;;;;7.00;6.05;;;1.90;99.90;;;;;;4932292;29;20233;-72
2023/01/19 10:40:56;;;;;;;6.18;5.57;;;2.00;99.90;;;;;;4934166;29;20197;-70
2023/01/19 10:43:36;;;;;;;6.18;5.57;;;2.00;99.90;;;;;;4930418;29;20201;-71
2023/01/19 10:46:08;;;;;;;6.70;5.60;;;2.10;99.90;;;;;;4916751;29;20285;-71
2023/01/19 10:48:40;;;;;;;6.40;5.57;;;2.10;99.90;;;;;;4932707;29;20244;-70
2023/01/19 10:51:09;;;;;;;5.95;5.35;;;2.10;99.90;;;;;;4916875;29;20202;-70
2023/01/19 10:53:37;;;;;;;6.50;5.85;;;2.10;99.90;;;;;;4933695;29;20238;-70
2023/01/19 10:56:15;;;;;;;7.00;5.75;;;2.20;99.90;;;;;;4933470;29;20653;-70
2023/01/19 10:58:42;;;;;;;6.18;5.55;;;2.30;99.90;;;;;;4923574;29;20322;-70
2023/01/19 11:01:19;;;;;;;5.95;5.07;;;2.50;99.90;;;;;;4921278;29;20194;-70
2023/01/19 11:03:46;;;;;;;7.00;5.80;;;2.70;99.90;;;;;;4931897;29;20185;-71
2023/01/19 11:06:24;;;;;;;4.80;4.40;;;2.90;99.90;;;;;;4931670;29;20287;-71
2023/01/19 11:08:56;;;;;;;6.15;5.40;;;3.10;99.90;;;;;;4934415;29;20286;-71
2023/01/19 11:11:24;;;;;;;5.55;4.90;;;3.30;99.90;;;;;;4932814;29;20287;-71
2023/01/19 11:14:09;;;;;;;5.35;4.90;;;3.40;99.90;;;;;;4932991;29;20296;-72
2023/01/19 11:16:38;;;;;;;10.38;5.10;;;3.30;99.90;;;;;;4932427;29;20256;-71
2023/01/19 11:19:06;;;;;;;6.45;5.00;;;3.30;99.90;;;;;;4934114;29;20292;-72
2023/01/19 11:21:33;;;;;;;7.38;4.95;;;3.40;99.90;;;;;;4934401;29;20220;-71
2023/01/19 11:24:04;;;;;;;5.07;4.68;;;3.50;99.90;;;;;;4927212;29;20233;-71
2023/01/19 11:26:39;;;;;;;5.20;4.70;;;3.50;99.90;;;;;;4933709;29;20228;-71
2023/01/19 11:29:14;;;;;;;5.50;4.53;;;3.30;99.90;;;;;;4933430;29;20207;-72
2023/01/19 11:31:44;;;;;;;6.28;4.60;;;3.20;99.90;;;;;;4935211;29;20197;-72
2023/01/19 11:34:24;;;;;;;4.95;4.45;;;3.10;99.90;;;;;;4929717;29;20201;-71
2023/01/19 11:36:57;;;;;;;5.32;4.60;;;3.00;99.90;;;;;;4933699;29;20317;-71
2023/01/19 11:39:26;;;;;;;5.80;5.20;;;3.00;99.90;;;;;;4933521;29;20298;-71
2023/01/19 11:41:56;;;;;;;5.28;4.43;;;2.90;99.90;;;;;;4935093;29;20273;-72
2023/01/19 11:44:25;;;;;;;5.30;4.80;;;3.00;99.90;;;;;;4930028;29;20208;-72
2023/01/19 11:46:59;;;;;;;4.53;4.20;;;3.00;99.90;;;;;;4934411;29;20730;-71
2023/01/19 11:49:37;;;;;;;5.07;4.43;;;3.00;99.90;;;;;;4933170;29;20252;-71
2023/01/19 11:52:07;;;;;;;5.22;4.53;;;2.80;99.90;;;;;;4933598;29;20271;-71
2023/01/19 11:54:47;;;;;;;5.95;4.53;;;2.80;99.90;;;;;;4933726;29;20217;-72
2023/01/19 11:57:16;;;;;;;4.88;4.47;;;2.70;99.90;;;;;;4932539;29;20337;-72
2023/01/19 11:59:44;;;;;;;4.95;4.40;;;2.60;99.90;;;;;;4928558;29;20649;-71
2023/01/19 12:02:22;;;;;;;5.25;4.75;;;2.50;99.90;;;;;;4934042;29;20756;-72
2023/01/19 12:04:50;;;;;;;6.15;5.10;;;2.50;99.90;;;;;;4933559;29;20229;-71
2023/01/19 12:07:25;;;;;;;5.40;4.90;;;2.50;99.90;;;;;;4931154;29;20322;-71
2023/01/19 12:09:56;;;;;;;6.07;5.47;;;2.40;99.90;;;;;;4933582;29;20734;-71
2023/01/19 12:12:28;;;;;;;5.90;5.30;;;2.40;99.90;;;;;;4932986;29;20211;-70
2023/01/19 12:15:00;;;;;;;5.72;5.10;;;2.40;99.90;;;;;;4933255;29;20195;-71
2023/01/19 12:17:32;;;;;;;5.93;4.85;;;2.40;99.90;;;;;;4934180;29;20273;-71
2023/01/19 12:20:06;;;;;;;6.18;5.20;;;2.40;99.90;;;;;;4918194;29;20206;-71
2023/01/19 12:22:41;;;;;;;5.90;5.40;;;2.30;99.90;;;;;;4926202;29;20776;-71
2023/01/19 12:25:19;;;;;;;6.90;5.60;;;2.30;99.90;;;;;;4934266;29;20604;-71
2023/01/19 12:27:48;;;;;;;6.05;5.45;;;2.20;99.90;;;;;;4932115;29;20316;-71
2023/01/19 12:30:19;;;;;;;6.15;5.55;;;2.20;99.90;;;;;;4922184;29;20296;-71
2023/01/19 12:32:50;;;;;;;5.88;5.15;;;2.30;99.90;;;;;;4925315;29;20225;-72
2023/01/19 12:35:55;;;;;;;6.47;5.82;;;2.30;99.90;;;;;;4934079;29;20297;-71
2023/01/19 12:38:33;;;;;;;7.88;7.18;;;2.30;99.90;;;;;;4932628;29;20233;-71
2023/01/19 12:41:28;;;;;;;7.53;6.88;;;2.30;99.90;;;;;;4931219;29;20527;-71
2023/01/19 12:44:20;;;;;;;8.60;6.97;;;2.20;99.90;;;;;;4931334;29;20215;-71
2023/01/19 12:46:50;;;;;;;7.70;7.00;;;2.20;99.90;;;;;;4931407;29;20225;-71
2023/01/19 12:49:25;;;;;;;7.93;7.20;;;2.20;99.90;;;;;;4930897;29;20206;-71
2023/01/19 12:51:55;;;;;;;8.70;6.57;;;2.20;99.90;;;;;;4914905;29;20606;-70
2023/01/19 12:54:30;;;;;;;8.20;6.82;;;2.30;99.90;;;;;;4918857;29;20214;-71
2023/01/19 12:57:02;;;;;;;9.43;7.97;;;2.30;99.90;;;;;;4914386;29;20229;-71
2023/01/19 12:59:31;;;;;;;8.57;7.20;;;2.20;99.90;;;;;;4929686;29;20210;-71